Time;durP1;ratioP1;P1;durP2;ratioP2;P2;SDS_P1;SDS_P2;PMS_P1;PMS_P2;Temp;Humidity;BMP_temperature;BMP_pressure;BME280_temperature;BME280_humidity;BME280_pressure;Samples;Min_cycle;Max_cycle;Signal;HPM_P1;HPM_P2
2022/08/21 00:00:52;;;;;;;0.00;0.00;;;16.90;99.90;;;;;;4991384;28;20053;-67
2022/08/21 00:03:17;;;;;;;0.73;0.63;;;16.90;99.90;;;;;;4988240;28;20043;-67
2022/08/21 00:05:47;;;;;;;1.38;1.27;;;16.90;99.90;;;;;;4989309;28;20096;-67
2022/08/21 00:08:13;;;;;;;0.25;0.25;;;16.90;99.90;;;;;;4992255;28;20050;-67
2022/08/21 00:10:39;;;;;;;0.00;0.00;;;16.90;99.90;;;;;;5004655;28;20101;-67
2022/08/21 00:13:05;;;;;;;0.08;0.08;;;16.90;99.90;;;;;;5004483;28;20054;-67
2022/08/21 00:15:33;;;;;;;1.25;1.13;;;16.80;99.90;;;;;;4988225;28;20513;-67
2022/08/21 00:17:58;;;;;;;0.10;0.10;;;16.90;99.90;;;;;;5006819;28;20104;-67
2022/08/21 00:20:25;;;;;;;0.20;0.20;;;16.90;99.90;;;;;;5008476;28;20823;-67
2022/08/21 00:22:51;;;;;;;0.13;0.13;;;16.80;99.90;;;;;;5007556;28;20048;-67
2022/08/21 00:25:18;;;;;;;2.45;0.35;;;16.70;99.90;;;;;;4995729;28;20082;-67
2022/08/21 00:27:43;;;;;;;0.00;0.00;;;16.80;99.90;;;;;;5002372;28;20077;-67
2022/08/21 00:30:11;;;;;;;0.65;0.65;;;16.80;99.90;;;;;;5008690;28;20297;-67
2022/08/21 00:32:39;;;;;;;0.08;0.08;;;16.80;99.90;;;;;;4999447;28;20034;-67
2022/08/21 00:35:07;;;;;;;0.45;0.45;;;16.80;99.90;;;;;;4988774;28;20042;-68
2022/08/21 00:37:33;;;;;;;0.00;0.00;;;16.80;99.90;;;;;;5005600;28;20053;-67
2022/08/21 00:39:59;;;;;;;0.10;0.10;;;16.80;99.90;;;;;;4996270;28;20410;-67
2022/08/21 00:42:25;;;;;;;0.35;0.35;;;16.80;99.90;;;;;;4998926;28;20053;-67
2022/08/21 00:44:51;;;;;;;0.00;0.00;;;16.80;99.90;;;;;;5006925;28;20053;-67
2022/08/21 00:47:19;;;;;;;0.20;0.20;;;16.80;99.90;;;;;;4988110;28;20740;-67
2022/08/21 00:49:44;;;;;;;6.93;2.65;;;16.90;99.90;;;;;;4988706;28;20070;-67
2022/08/21 00:52:17;;;;;;;0.45;0.45;;;16.80;99.90;;;;;;4997502;28;20547;-67
2022/08/21 00:54:42;;;;;;;0.38;0.38;;;16.70;99.90;;;;;;5005684;28;20042;-67
2022/08/21 00:57:15;;;;;;;0.00;0.00;;;16.70;99.90;;;;;;5003924;28;20062;-67
2022/08/21 00:59:45;;;;;;;0.52;0.52;;;16.60;99.90;;;;;;4989703;28;20062;-67
2022/08/21 01:02:11;;;;;;;0.00;0.00;;;16.60;99.90;;;;;;4992910;28;20491;-67
2022/08/21 01:04:37;;;;;;;0.03;0.03;;;16.60;99.90;;;;;;4987578;28;20045;-67
2022/08/21 01:07:03;;;;;;;0.00;0.00;;;16.60;99.90;;;;;;4993295;28;20856;-67
2022/08/21 01:09:28;;;;;;;1.10;0.52;;;16.60;99.90;;;;;;4996820;28;20045;-67
2022/08/21 01:11:54;;;;;;;0.10;0.10;;;16.60;99.90;;;;;;5007681;28;20661;-67
2022/08/21 01:14:20;;;;;;;0.75;0.35;;;16.60;99.90;;;;;;4997857;28;20073;-67
2022/08/21 01:16:49;;;;;;;0.35;0.35;;;16.60;99.90;;;;;;4993572;28;20049;-67
2022/08/21 01:19:16;;;;;;;11.50;1.20;;;16.70;99.90;;;;;;4998582;28;20046;-67
2022/08/21 01:21:42;;;;;;;1.27;0.30;;;16.60;99.90;;;;;;4994789;28;20080;-67
2022/08/21 01:24:09;;;;;;;0.32;0.32;;;16.60;99.90;;;;;;5011768;28;20045;-67
2022/08/21 01:26:35;;;;;;;0.00;0.00;;;16.50;99.90;;;;;;5004548;28;20467;-67
2022/08/21 01:29:09;;;;;;;0.00;0.00;;;16.60;99.90;;;;;;4990861;28;20061;-67
2022/08/21 01:31:36;;;;;;;1.70;1.10;;;16.60;99.90;;;;;;4992096;28;20094;-67
2022/08/21 01:34:03;;;;;;;0.40;0.30;;;16.50;99.90;;;;;;5003568;28;20030;-67
2022/08/21 01:36:29;;;;;;;0.20;0.20;;;16.50;99.90;;;;;;4995511;28;20038;-67
2022/08/21 01:38:55;;;;;;;1.88;1.25;;;16.40;99.90;;;;;;4992107;28;20042;-67
2022/08/21 01:41:21;;;;;;;0.00;0.00;;;16.40;99.90;;;;;;5001122;28;20383;-67
2022/08/21 01:43:46;;;;;;;0.00;0.00;;;16.50;99.90;;;;;;4997756;28;20045;-67
2022/08/21 01:46:12;;;;;;;0.80;0.32;;;16.50;99.90;;;;;;4993490;28;20109;-67
2022/08/21 01:48:38;;;;;;;0.20;0.20;;;16.50;99.90;;;;;;4990043;28;20150;-67
2022/08/21 01:51:05;;;;;;;0.20;0.20;;;16.50;99.90;;;;;;4995172;28;20054;-67
2022/08/21 01:53:31;;;;;;;0.75;0.75;;;16.40;99.90;;;;;;4991775;28;20125;-67
2022/08/21 01:55:57;;;;;;;0.65;0.65;;;16.40;99.90;;;;;;4991411;28;20062;-67
2022/08/21 01:58:22;;;;;;;0.10;0.10;;;16.40;99.90;;;;;;4989958;28;20061;-67
2022/08/21 02:00:49;;;;;;;0.55;0.55;;;16.40;99.90;;;;;;4991837;28;20073;-67
2022/08/21 02:03:14;;;;;;;0.32;0.32;;;16.40;99.90;;;;;;4991119;28;20050;-67
2022/08/21 02:05:40;;;;;;;0.80;0.70;;;16.30;99.90;;;;;;5008256;28;20107;-67
2022/08/21 02:08:06;;;;;;;0.35;0.35;;;16.40;99.90;;;;;;4996519;28;20046;-67
2022/08/21 02:10:33;;;;;;;0.20;0.20;;;16.30;99.90;;;;;;5005510;28;20049;-67
2022/08/21 02:13:00;;;;;;;0.10;0.10;;;16.30;99.90;;;;;;5008971;28;20054;-67
2022/08/21 02:15:26;;;;;;;0.00;0.00;;;16.30;99.90;;;;;;5011092;28;20049;-67
2022/08/21 02:17:55;;;;;;;0.30;0.30;;;16.40;99.90;;;;;;4996472;28;20046;-67
2022/08/21 02:20:34;;;;;;;0.60;0.47;;;16.30;99.90;;;;;;5002351;28;20053;-67
2022/08/21 02:23:00;;;;;;;0.32;0.32;;;16.40;99.90;;;;;;5010434;28;20050;-67
2022/08/21 02:25:27;;;;;;;0.00;0.00;;;16.40;99.90;;;;;;5001759;28;20049;-67
2022/08/21 02:27:54;;;;;;;0.55;0.55;;;16.40;99.90;;;;;;4997002;28;20908;-67
2022/08/21 02:30:26;;;;;;;1.48;0.85;;;16.40;99.90;;;;;;4994377;28;20034;-67
2022/08/21 02:32:52;;;;;;;22.17;0.43;;;16.30;99.90;;;;;;5002250;28;20402;-67
2022/08/21 02:35:18;;;;;;;0.05;0.05;;;16.30;99.90;;;;;;4990685;28;20050;-67
2022/08/21 02:37:56;;;;;;;0.10;0.10;;;16.30;99.90;;;;;;5004965;28;20580;-67
2022/08/21 02:40:25;;;;;;;0.00;0.00;;;16.30;99.90;;;;;;5009581;28;20053;-67
2022/08/21 02:42:51;;;;;;;0.85;0.75;;;16.30;99.90;;;;;;4998699;28;20508;-67
2022/08/21 02:45:18;;;;;;;0.00;0.00;;;16.30;99.90;;;;;;4998460;28;20042;-68
2022/08/21 02:47:52;;;;;;;0.00;0.00;;;16.30;99.90;;;;;;5008124;28;20049;-67
2022/08/21 02:50:27;;;;;;;0.00;0.00;;;16.20;99.90;;;;;;4990333;28;20125;-67
2022/08/21 02:52:53;;;;;;;0.30;0.30;;;16.30;99.90;;;;;;4987750;28;20065;-67
2022/08/21 02:55:25;;;;;;;0.00;0.00;;;16.30;99.90;;;;;;4989792;28;20077;-67
2022/08/21 02:57:52;;;;;;;0.10;0.10;;;16.30;99.90;;;;;;5007832;28;20057;-67
2022/08/21 03:00:19;;;;;;;0.00;0.00;;;16.40;99.90;;;;;;5005752;28;20092;-67
2022/08/21 03:02:46;;;;;;;0.00;0.00;;;16.30;99.90;;;;;;4991214;28;20128;-67
2022/08/21 03:05:12;;;;;;;0.10;0.10;;;16.30;99.90;;;;;;4997244;28;20054;-67
2022/08/21 03:07:39;;;;;;;0.00;0.00;;;16.30;99.90;;;;;;4989574;28;20555;-67
2022/08/21 03:10:05;;;;;;;0.35;0.35;;;16.30;99.90;;;;;;4990034;28;20045;-67
2022/08/21 03:12:31;;;;;;;0.13;0.13;;;16.30;99.90;;;;;;4998160;28;20552;-67
2022/08/21 03:14:57;;;;;;;0.05;0.05;;;16.40;99.90;;;;;;4995510;28;20050;-67
2022/08/21 03:17:24;;;;;;;0.22;0.13;;;16.30;99.90;;;;;;5009677;28;20057;-67
2022/08/21 03:19:49;;;;;;;0.00;0.00;;;16.30;99.90;;;;;;5007411;28;20058;-67
2022/08/21 03:22:15;;;;;;;1.20;0.38;;;16.40;99.90;;;;;;4992755;28;20042;-67
2022/08/21 03:24:41;;;;;;;0.10;0.10;;;16.50;99.90;;;;;;4989813;28;20112;-67
2022/08/21 03:27:06;;;;;;;0.03;0.03;;;16.40;99.90;;;;;;4997230;28;20042;-67
2022/08/21 03:29:32;;;;;;;0.73;0.73;;;16.40;99.90;;;;;;5004048;28;20045;-67
2022/08/21 03:31:57;;;;;;;0.28;0.28;;;16.50;99.90;;;;;;4989516;28;20057;-67
2022/08/21 03:34:23;;;;;;;0.03;0.03;;;16.50;99.90;;;;;;4989539;28;20429;-67
2022/08/21 03:36:49;;;;;;;0.10;0.10;;;16.40;99.90;;;;;;4988892;28;20125;-67
2022/08/21 03:39:16;;;;;;;0.55;0.45;;;16.40;99.90;;;;;;4989343;28;20038;-67
2022/08/21 03:41:41;;;;;;;0.00;0.00;;;16.40;99.90;;;;;;4995279;28;20096;-67
2022/08/21 03:44:07;;;;;;;0.20;0.20;;;16.40;99.90;;;;;;4999663;28;20042;-67
2022/08/21 03:46:33;;;;;;;0.93;0.73;;;16.30;99.90;;;;;;4991951;28;20069;-67
2022/08/21 03:48:59;;;;;;;1.67;0.40;;;16.40;99.90;;;;;;4988318;28;20049;-67
2022/08/21 03:51:25;;;;;;;0.10;0.10;;;16.40;99.90;;;;;;4994764;28;20033;-67
2022/08/21 03:53:50;;;;;;;0.03;0.03;;;16.40;99.90;;;;;;5009589;28;20038;-67
2022/08/21 03:56:16;;;;;;;0.10;0.10;;;16.40;99.90;;;;;;5002659;28;20042;-67
2022/08/21 03:58:42;;;;;;;0.05;0.05;;;16.30;99.90;;;;;;4997638;28;20061;-67
2022/08/21 04:01:07;;;;;;;0.10;0.05;;;16.40;99.90;;;;;;5000834;28;20138;-67
2022/08/21 04:03:35;;;;;;;0.10;0.10;;;16.40;99.90;;;;;;4988628;28;20053;-67
2022/08/21 04:06:01;;;;;;;0.30;0.25;;;16.40;99.90;;;;;;4989536;28;20053;-67
2022/08/21 04:08:27;;;;;;;0.10;0.10;;;16.30;99.90;;;;;;4986966;28;20042;-67
2022/08/21 04:10:55;;;;;;;0.28;0.28;;;16.40;99.90;;;;;;4989514;28;20065;-67
2022/08/21 04:13:21;;;;;;;0.00;0.00;;;16.40;99.90;;;;;;5004759;28;20061;-67
2022/08/21 04:15:47;;;;;;;0.10;0.10;;;16.40;99.90;;;;;;4992538;28;20038;-67
2022/08/21 04:18:13;;;;;;;0.10;0.10;;;16.40;99.90;;;;;;4988444;28;20046;-67
2022/08/21 04:20:41;;;;;;;0.10;0.10;;;16.40;99.90;;;;;;4992475;28;20057;-67
2022/08/21 04:23:07;;;;;;;0.10;0.10;;;16.40;99.90;;;;;;4988180;28;20437;-67
2022/08/21 04:25:32;;;;;;;0.17;0.17;;;16.40;99.90;;;;;;5006466;28;20033;-67
2022/08/21 04:27:58;;;;;;;0.25;0.25;;;16.30;99.90;;;;;;5007604;28;20050;-67
2022/08/21 04:30:23;;;;;;;0.10;0.10;;;16.30;99.90;;;;;;5006517;28;20077;-67
2022/08/21 04:32:50;;;;;;;0.45;0.45;;;16.30;99.90;;;;;;5007609;28;20070;-67
2022/08/21 04:35:21;;;;;;;0.15;0.10;;;16.30;99.90;;;;;;5007168;28;20485;-67
2022/08/21 04:37:46;;;;;;;0.00;0.00;;;16.30;99.90;;;;;;4995963;28;20128;-67
2022/08/21 04:40:14;;;;;;;0.10;0.10;;;16.30;99.90;;;;;;4988195;28;20133;-67
2022/08/21 04:42:51;;;;;;;0.35;0.35;;;16.30;99.90;;;;;;4988587;28;20200;-67
2022/08/21 04:45:42;;;;;;;3.05;2.20;;;16.30;99.90;;;;;;5006480;28;20118;-67
2022/08/21 04:48:12;;;;;;;0.43;0.32;;;16.40;99.90;;;;;;4999141;28;20069;-67
2022/08/21 04:50:59;;;;;;;0.40;0.40;;;16.40;99.90;;;;;;4992510;28;20081;-67
2022/08/21 04:53:43;;;;;;;2.05;0.50;;;16.40;99.90;;;;;;4992063;28;20104;-67
2022/08/21 04:56:15;;;;;;;0.08;0.08;;;16.40;99.90;;;;;;4999302;28;20414;-67
2022/08/21 04:58:42;;;;;;;0.10;0.10;;;16.50;99.90;;;;;;5003936;28;20445;-67
2022/08/21 05:01:13;;;;;;;0.50;0.50;;;16.40;99.90;;;;;;4991943;28;20046;-67
2022/08/21 05:03:40;;;;;;;0.50;0.50;;;16.50;99.90;;;;;;4993344;28;20118;-67
2022/08/21 05:06:09;;;;;;;0.10;0.10;;;16.50;99.90;;;;;;4994845;28;20133;-67
2022/08/21 05:08:36;;;;;;;1.02;0.60;;;16.50;99.90;;;;;;4992394;28;20129;-67
2022/08/21 05:11:03;;;;;;;0.03;0.03;;;16.50;99.90;;;;;;4991685;28;20072;-67
2022/08/21 05:13:29;;;;;;;1.08;0.57;;;16.50;99.90;;;;;;4997778;28;20406;-67
2022/08/21 05:15:55;;;;;;;0.00;0.00;;;16.50;99.90;;;;;;4990890;28;20581;-67
2022/08/21 05:18:21;;;;;;;0.10;0.10;;;16.50;99.90;;;;;;4997791;28;20041;-67
2022/08/21 05:20:46;;;;;;;0.00;0.00;;;16.50;99.90;;;;;;4995797;28;20045;-67
2022/08/21 05:23:14;;;;;;;0.10;0.10;;;16.60;99.90;;;;;;4991223;28;20049;-67
2022/08/21 05:25:41;;;;;;;0.00;0.00;;;16.60;99.90;;;;;;4995813;28;20626;-67
2022/08/21 05:28:06;;;;;;;0.03;0.03;;;16.60;99.90;;;;;;4993856;28;20121;-67
2022/08/21 05:30:33;;;;;;;0.25;0.25;;;16.60;99.90;;;;;;4992614;28;20541;-67
2022/08/21 05:33:00;;;;;;;0.00;0.00;;;16.60;99.90;;;;;;4992576;28;20525;-67
2022/08/21 05:35:27;;;;;;;0.17;0.17;;;16.60;99.90;;;;;;4991084;28;20053;-67
2022/08/21 05:37:53;;;;;;;0.10;0.10;;;16.70;99.90;;;;;;4992299;28;20038;-67
2022/08/21 05:40:18;;;;;;;0.10;0.10;;;16.70;99.90;;;;;;5010272;28;20505;-68
2022/08/21 05:42:44;;;;;;;0.10;0.10;;;16.70;99.90;;;;;;5008716;28;20433;-67
2022/08/21 05:45:10;;;;;;;0.10;0.10;;;16.70;99.90;;;;;;5009279;28;20038;-68
2022/08/21 05:47:35;;;;;;;0.00;0.00;;;16.80;99.90;;;;;;5010579;28;20073;-68
2022/08/21 05:50:01;;;;;;;0.13;0.13;;;16.80;99.90;;;;;;4992127;28;20689;-68
2022/08/21 05:52:27;;;;;;;0.20;0.20;;;16.90;99.90;;;;;;5007728;28;20047;-68
2022/08/21 05:54:53;;;;;;;0.20;0.20;;;16.90;99.90;;;;;;4991490;28;20402;-67
2022/08/21 05:57:20;;;;;;;0.20;0.20;;;17.00;99.90;;;;;;5008650;28;20050;-67
2022/08/21 05:59:45;;;;;;;5.07;0.50;;;17.00;99.90;;;;;;5008576;28;20068;-67
2022/08/21 06:02:11;;;;;;;0.20;0.20;;;17.10;99.90;;;;;;4991695;28;20386;-67
2022/08/21 06:04:40;;;;;;;0.00;0.00;;;17.10;99.90;;;;;;4998119;28;20042;-67
2022/08/21 06:07:06;;;;;;;1.20;0.52;;;17.10;99.90;;;;;;5009184;28;20045;-67
2022/08/21 06:09:32;;;;;;;0.20;0.20;;;17.20;99.90;;;;;;5010520;28;20042;-67
2022/08/21 06:11:58;;;;;;;0.20;0.20;;;17.30;99.90;;;;;;5004367;28;20038;-67
2022/08/21 06:14:23;;;;;;;0.55;0.55;;;17.30;99.90;;;;;;5004962;28;20040;-68
2022/08/21 06:16:49;;;;;;;0.08;0.08;;;17.40;99.90;;;;;;5009596;28;20115;-68
2022/08/21 06:19:15;;;;;;;0.00;0.00;;;17.40;99.90;;;;;;5010748;28;20073;-68
2022/08/21 06:21:40;;;;;;;0.10;0.10;;;17.40;99.90;;;;;;4995756;28;20054;-68
2022/08/21 06:24:06;;;;;;;0.10;0.10;;;17.50;99.90;;;;;;5003562;28;20042;-68
2022/08/21 06:26:33;;;;;;;0.10;0.10;;;17.50;99.90;;;;;;4999297;28;20484;-68
2022/08/21 06:28:58;;;;;;;0.00;0.00;;;17.60;99.90;;;;;;4994762;28;20054;-68
2022/08/21 06:31:26;;;;;;;0.00;0.00;;;17.70;99.90;;;;;;4992333;28;20043;-68
2022/08/21 06:33:52;;;;;;;0.20;0.20;;;17.70;99.90;;;;;;4997052;28;20045;-68
2022/08/21 06:36:20;;;;;;;0.20;0.20;;;17.80;99.90;;;;;;4998328;28;20060;-68
2022/08/21 06:38:46;;;;;;;0.05;0.05;;;17.80;99.90;;;;;;5008792;28;20037;-68
2022/08/21 06:41:13;;;;;;;0.10;0.10;;;17.90;99.90;;;;;;5009519;28;20048;-68
2022/08/21 06:43:39;;;;;;;0.00;0.00;;;17.90;99.90;;;;;;5007160;28;20042;-68
2022/08/21 06:46:05;;;;;;;0.30;0.30;;;18.00;99.90;;;;;;5009314;28;20449;-69
2022/08/21 06:48:32;;;;;;;0.28;0.28;;;18.10;99.90;;;;;;5006264;28;20042;-69
2022/08/21 06:50:59;;;;;;;0.10;0.10;;;18.10;99.90;;;;;;5001642;28;20056;-69
2022/08/21 06:53:26;;;;;;;0.15;0.15;;;18.20;99.90;;;;;;5004609;28;20050;-68
2022/08/21 06:55:52;;;;;;;0.00;0.00;;;18.20;99.90;;;;;;5004385;28;21414;-68
2022/08/21 06:58:19;;;;;;;0.95;0.50;;;18.30;99.90;;;;;;4999545;28;20165;-68
2022/08/21 07:00:47;;;;;;;0.17;0.17;;;18.30;99.90;;;;;;5000274;28;20049;-69
2022/08/21 07:03:18;;;;;;;0.10;0.10;;;18.30;99.90;;;;;;5006460;28;20045;-70
2022/08/21 07:05:44;;;;;;;0.00;0.00;;;18.40;99.90;;;;;;5002758;28;20049;-69
2022/08/21 07:08:09;;;;;;;0.13;0.13;;;18.50;99.90;;;;;;5007402;28;20100;-69
2022/08/21 07:10:35;;;;;;;0.00;0.00;;;18.60;99.90;;;;;;5008765;28;20119;-69
2022/08/21 07:13:01;;;;;;;3.58;0.55;;;18.70;99.90;;;;;;5003095;28;20080;-69
2022/08/21 07:15:30;;;;;;;1.00;0.82;;;18.80;99.90;;;;;;5009459;28;20042;-69
2022/08/21 07:17:57;;;;;;;0.00;0.00;;;18.90;99.90;;;;;;5004166;28;20426;-69
2022/08/21 07:20:22;;;;;;;0.15;0.13;;;18.90;99.90;;;;;;4988651;28;20406;-69
2022/08/21 07:22:48;;;;;;;0.10;0.10;;;19.00;99.90;;;;;;4989241;28;20057;-70
2022/08/21 07:25:13;;;;;;;0.00;0.00;;;19.10;99.90;;;;;;5006794;28;20041;-70
2022/08/21 07:27:39;;;;;;;0.10;0.10;;;19.10;99.90;;;;;;5007254;28;20085;-70
2022/08/21 07:30:05;;;;;;;0.10;0.10;;;19.10;99.90;;;;;;5006928;28;20049;-70
2022/08/21 07:32:31;;;;;;;21.25;1.98;;;19.20;99.90;;;;;;4998595;28;20062;-69
2022/08/21 07:34:56;;;;;;;0.10;0.10;;;19.20;99.90;;;;;;4989104;28;20166;-69
2022/08/21 07:37:22;;;;;;;1.58;0.90;;;19.30;99.90;;;;;;4996076;28;20037;-69
2022/08/21 07:39:48;;;;;;;21.73;0.80;;;19.40;99.90;;;;;;4991209;28;20101;-70
2022/08/21 07:42:15;;;;;;;0.00;0.00;;;19.40;99.90;;;;;;4999360;28;20050;-70
2022/08/21 07:44:40;;;;;;;0.10;0.10;;;19.40;99.90;;;;;;4998541;28;20072;-69
2022/08/21 07:47:06;;;;;;;0.90;0.68;;;19.40;99.90;;;;;;4989865;28;20685;-70
2022/08/21 07:49:31;;;;;;;0.08;0.08;;;19.50;99.90;;;;;;4991681;28;20034;-69
2022/08/21 07:51:57;;;;;;;0.10;0.10;;;19.40;99.90;;;;;;4994244;28;20046;-70
2022/08/21 07:54:23;;;;;;;0.10;0.10;;;19.50;99.90;;;;;;4989764;28;20141;-68
2022/08/21 07:56:49;;;;;;;2.17;0.85;;;19.50;99.90;;;;;;4995348;28;20046;-69
2022/08/21 07:59:14;;;;;;;0.10;0.10;;;19.50;99.90;;;;;;4992045;28;20077;-69
2022/08/21 08:01:40;;;;;;;0.15;0.15;;;19.70;99.90;;;;;;4987033;28;20049;-69
2022/08/21 08:04:05;;;;;;;0.10;0.10;;;19.70;99.90;;;;;;4989567;28;20589;-69
2022/08/21 08:06:31;;;;;;;4.97;1.70;;;19.90;99.90;;;;;;4999540;28;20052;-69
2022/08/21 08:08:57;;;;;;;2.38;0.32;;;19.90;99.90;;;;;;5003847;28;20520;-69
2022/08/21 08:11:23;;;;;;;0.17;0.17;;;20.00;99.90;;;;;;5007447;28;20046;-68
2022/08/21 08:13:51;;;;;;;0.00;0.00;;;20.00;99.90;;;;;;5001606;28;20050;-69
2022/08/21 08:16:17;;;;;;;0.20;0.20;;;20.00;99.90;;;;;;4992136;28;20050;-69
2022/08/21 08:18:44;;;;;;;0.00;0.00;;;20.00;99.90;;;;;;4987724;28;20046;-69
2022/08/21 08:21:10;;;;;;;0.03;0.03;;;20.10;99.90;;;;;;4986841;28;20054;-68
2022/08/21 08:23:37;;;;;;;0.30;0.30;;;20.10;99.90;;;;;;4986430;28;20058;-68
2022/08/21 08:26:02;;;;;;;0.20;0.20;;;20.10;99.90;;;;;;4998792;28;20038;-68
2022/08/21 08:28:30;;;;;;;0.10;0.10;;;20.20;99.90;;;;;;4988094;28;20046;-69
2022/08/21 08:30:55;;;;;;;0.10;0.10;;;20.30;99.90;;;;;;4988261;28;20085;-68
2022/08/21 08:33:22;;;;;;;0.40;0.40;;;20.40;99.90;;;;;;4988961;28;20073;-68
2022/08/21 08:35:50;;;;;;;0.00;0.00;;;20.50;99.90;;;;;;5008608;28;20056;-68
2022/08/21 08:38:18;;;;;;;0.00;0.00;;;20.60;99.90;;;;;;4994416;28;20402;-68
2022/08/21 08:40:55;;;;;;;0.00;0.00;;;20.70;99.90;;;;;;4987480;28;20046;-68
2022/08/21 08:43:20;;;;;;;13.25;0.82;;;20.70;99.90;;;;;;4991234;28;20104;-69
2022/08/21 08:45:50;;;;;;;0.15;0.15;;;20.80;99.90;;;;;;4988505;28;20630;-69
2022/08/21 08:48:31;;;;;;;0.10;0.10;;;20.70;99.90;;;;;;4986294;28;20049;-68
2022/08/21 08:51:00;;;;;;;0.05;0.05;;;20.70;99.90;;;;;;4986818;28;20042;-69
2022/08/21 08:53:31;;;;;;;1.73;1.65;;;20.70;99.90;;;;;;5000289;28;20046;-69
2022/08/21 08:55:59;;;;;;;0.55;0.43;;;20.70;99.90;;;;;;4997202;28;20034;-68
2022/08/21 08:58:32;;;;;;;0.20;0.20;;;20.70;99.90;;;;;;4986899;28;20069;-69
2022/08/21 09:00:58;;;;;;;0.52;0.45;;;20.90;99.90;;;;;;5001079;28;20048;-70
2022/08/21 09:03:25;;;;;;;0.10;0.10;;;21.00;99.90;;;;;;4995184;28;20046;-69
2022/08/21 09:06:04;;;;;;;0.08;0.08;;;21.10;99.90;;;;;;5001190;28;20053;-69
2022/08/21 09:08:49;;;;;;;0.00;0.00;;;21.00;99.90;;;;;;4996146;28;20046;-68
2022/08/21 09:11:21;;;;;;;0.32;0.32;;;20.90;99.90;;;;;;5000162;28;20116;-69
2022/08/21 09:13:57;;;;;;;0.00;0.00;;;20.90;99.90;;;;;;5004612;28;20691;-68
2022/08/21 09:16:36;;;;;;;0.00;0.00;;;21.40;99.90;;;;;;5004579;28;20108;-69
2022/08/21 09:19:27;;;;;;;0.20;0.20;;;21.90;99.90;;;;;;4987806;28;20069;-69
2022/08/21 09:22:27;;;;;;;0.20;0.20;;;22.00;99.90;;;;;;4986403;28;20074;-69
2022/08/21 09:25:23;;;;;;;0.00;0.00;;;21.80;99.90;;;;;;4990206;28;20097;-69
2022/08/21 09:27:50;;;;;;;0.00;0.00;;;22.30;99.90;;;;;;4988193;28;20383;-69
2022/08/21 09:30:17;;;;;;;0.20;0.20;;;22.10;99.90;;;;;;5000646;28;20053;-69
2022/08/21 09:32:43;;;;;;;0.00;0.00;;;22.10;99.90;;;;;;5007806;28;20466;-72
2022/08/21 09:35:19;;;;;;;0.30;0.30;;;22.20;99.90;;;;;;5001604;28;20081;-69
2022/08/21 09:37:58;;;;;;;0.20;0.10;;;22.10;99.90;;;;;;5003740;28;20044;-69
2022/08/21 09:40:36;;;;;;;1.08;0.57;;;22.50;99.90;;;;;;5007135;28;20050;-69
2022/08/21 09:43:12;;;;;;;0.13;0.13;;;23.40;99.90;;;;;;5007716;28;20029;-69
2022/08/21 09:45:41;;;;;;;0.00;0.00;;;24.10;99.90;;;;;;4994219;28;20054;-69
2022/08/21 09:48:17;;;;;;;0.93;0.88;;;24.40;99.90;;;;;;5004674;28;20053;-69
2022/08/21 09:50:44;;;;;;;0.10;0.10;;;25.00;99.90;;;;;;5010283;28;20136;-69
2022/08/21 09:53:30;;;;;;;0.00;0.00;;;25.30;99.90;;;;;;4991403;28;20038;-69
2022/08/21 09:58:49;;;;;;;0.00;0.00;;;25.80;99.90;;;;;;5007522;28;20050;-69
2022/08/21 10:01:24;;;;;;;2.92;1.23;;;25.10;99.90;;;;;;4995574;28;20112;-69
2022/08/21 10:04:03;;;;;;;0.00;0.00;;;24.10;99.90;;;;;;4997826;28;20096;-69
2022/08/21 10:06:29;;;;;;;0.00;0.00;;;23.60;99.90;;;;;;4997879;28;20448;-68
2022/08/21 10:09:27;;;;;;;0.00;0.00;;;23.60;99.90;;;;;;5008237;28;20041;-69
2022/08/21 10:12:04;;;;;;;0.00;0.00;;;23.30;99.90;;;;;;4988757;28;20050;-69
2022/08/21 10:15:09;;;;;;;0.80;0.52;;;23.20;99.90;;;;;;4997206;28;20195;-69
2022/08/21 10:17:46;;;;;;;0.65;0.30;;;23.50;99.90;;;;;;5000886;28;20046;-68
2022/08/21 10:20:25;;;;;;;0.00;0.00;;;23.30;99.90;;;;;;4996752;28;20055;-69
2022/08/21 10:23:02;;;;;;;0.00;0.00;;;23.10;99.90;;;;;;5004477;28;20042;-68
2022/08/21 10:25:51;;;;;;;0.00;0.00;;;23.50;99.90;;;;;;5006058;28;20050;-69
2022/08/21 10:28:34;;;;;;;0.00;0.00;;;23.80;99.90;;;;;;4991006;28;20073;-69
2022/08/21 10:31:12;;;;;;;0.00;0.00;;;24.00;99.90;;;;;;5001368;28;20673;-69
2022/08/21 10:34:07;;;;;;;0.00;0.00;;;23.90;99.90;;;;;;5000473;28;20053;-69
2022/08/21 10:37:01;;;;;;;10.70;0.32;;;23.70;99.90;;;;;;5008751;28;20117;-69
2022/08/21 10:39:36;;;;;;;0.03;0.03;;;23.90;99.90;;;;;;4996808;28;20085;-69
2022/08/21 10:42:05;;;;;;;0.00;0.00;;;24.20;99.90;;;;;;4994954;28;20077;-68
2022/08/21 10:44:49;;;;;;;0.10;0.10;;;24.40;99.90;;;;;;4991485;28;20045;-69
2022/08/21 10:47:31;;;;;;;0.00;0.00;;;24.50;99.90;;;;;;5008714;28;20125;-69
2022/08/21 10:50:26;;;;;;;0.00;0.00;;;24.10;99.90;;;;;;5007383;28;20501;-69
2022/08/21 10:53:03;;;;;;;0.35;0.15;;;23.80;99.90;;;;;;4992198;28;20149;-68
2022/08/21 10:55:37;;;;;;;11.98;0.90;;;24.20;99.90;;;;;;5003244;28;20465;-69
2022/08/21 10:58:20;;;;;;;0.00;0.00;;;24.20;99.90;;;;;;4992516;28;20144;-69
2022/08/21 11:00:49;;;;;;;;;;;24.00;99.90;;;;;;5002282;28;20402;-69
2022/08/21 11:03:33;;;;;;;0.15;0.13;;;24.30;99.90;;;;;;5006853;28;19931;-69
2022/08/21 11:06:06;;;;;;;0.00;0.00;;;24.50;99.90;;;;;;4988928;28;20043;-69
2022/08/21 11:08:39;;;;;;;0.30;0.30;;;24.70;99.90;;;;;;4989090;28;20042;-68
2022/08/21 11:11:08;;;;;;;0.00;0.00;;;24.90;99.90;;;;;;4996641;28;20093;-69
2022/08/21 11:13:56;;;;;;;0.00;0.00;;;25.00;99.90;;;;;;5001023;28;20038;-69
2022/08/21 11:16:45;;;;;;;0.00;0.00;;;25.10;99.90;;;;;;4998307;28;20034;-69
2022/08/21 11:19:22;;;;;;;3.70;1.45;;;25.20;99.90;;;;;;4999024;28;20037;-69
2022/08/21 11:22:09;;;;;;;0.00;0.00;;;25.30;99.90;;;;;;4992526;28;20050;-69
2022/08/21 11:24:44;;;;;;;0.00;0.00;;;25.40;99.90;;;;;;4990805;28;20494;-69
2022/08/21 11:27:41;;;;;;;0.77;0.73;;;25.70;99.90;;;;;;4996283;28;20050;-69
2022/08/21 11:30:08;;;;;;;3.88;0.60;;;26.00;99.90;;;;;;4999048;28;20069;-69
2022/08/21 11:32:46;;;;;;;0.00;0.00;;;26.00;99.90;;;;;;4993704;28;20134;-70
2022/08/21 11:35:20;;;;;;;0.00;0.00;;;26.20;99.90;;;;;;4990770;28;20595;-69
2022/08/21 11:38:01;;;;;;;0.30;0.30;;;26.20;99.90;;;;;;5003308;28;20165;-70
2022/08/21 11:40:58;;;;;;;0.00;0.00;;;25.90;99.90;;;;;;5002048;28;20042;-70
2022/08/21 11:43:46;;;;;;;0.00;0.00;;;26.20;99.90;;;;;;4993834;28;20051;-70
2022/08/21 11:46:42;;;;;;;0.15;0.13;;;26.30;99.90;;;;;;5003950;28;20046;-69
2022/08/21 11:49:26;;;;;;;0.52;0.30;;;26.50;99.90;;;;;;4994914;28;20404;-69
2022/08/21 11:52:01;;;;;;;0.28;0.10;;;26.80;99.90;;;;;;5003054;28;20053;-69
2022/08/21 11:54:35;;;;;;;0.00;0.00;;;26.50;99.90;;;;;;5008014;28;20057;-69
2022/08/21 11:57:21;;;;;;;0.35;0.35;;;26.40;99.90;;;;;;5000074;28;20038;-69
2022/08/21 12:00:08;;;;;;;0.17;0.17;;;26.70;99.90;;;;;;4998231;28;20057;-69
2022/08/21 12:02:37;;;;;;;0.85;0.85;;;26.20;99.90;;;;;;4996622;28;20053;-69
2022/08/21 12:05:11;;;;;;;0.00;0.00;;;25.90;99.90;;;;;;5007980;28;20042;-69
2022/08/21 12:07:42;;;;;;;0.38;0.15;;;26.20;99.90;;;;;;5005034;28;20056;-69
2022/08/21 12:10:11;;;;;;;0.00;0.00;;;26.60;99.90;;;;;;5003002;28;20054;-69
2022/08/21 12:12:39;;;;;;;0.10;0.10;;;26.60;99.90;;;;;;4988840;28;20533;-70
2022/08/21 12:15:12;;;;;;;0.00;0.00;;;27.00;99.90;;;;;;4989406;28;20037;-70
2022/08/21 12:17:40;;;;;;;0.52;0.47;;;27.10;99.40;;;;;;5005604;28;20081;-69
2022/08/21 12:20:35;;;;;;;0.22;0.20;;;27.30;99.20;;;;;;5002911;28;20045;-69
2022/08/21 12:23:09;;;;;;;0.00;0.00;;;27.20;99.90;;;;;;4995712;28;20054;-69
2022/08/21 12:26:01;;;;;;;0.00;0.00;;;27.30;98.90;;;;;;5005512;28;20042;-69
2022/08/21 12:28:30;;;;;;;0.10;0.10;;;27.40;98.90;;;;;;4995014;28;20505;-69
2022/08/21 12:30:55;;;;;;;0.00;0.00;;;27.70;98.70;;;;;;5003803;28;20565;-69
2022/08/21 12:33:39;;;;;;;0.00;0.00;;;27.80;99.20;;;;;;5007796;28;20045;-69
2022/08/21 12:36:13;;;;;;;0.00;0.00;;;28.00;97.90;;;;;;4991939;28;20054;-69
2022/08/21 12:38:52;;;;;;;0.90;0.55;;;27.80;98.20;;;;;;5001581;28;20514;-69
2022/08/21 12:41:23;;;;;;;0.00;0.00;;;28.20;98.60;;;;;;5003195;28;20223;-70
2022/08/21 12:44:08;;;;;;;0.47;0.47;;;28.10;98.70;;;;;;5010316;28;20050;-69
2022/08/21 12:46:46;;;;;;;0.00;0.00;;;28.00;98.40;;;;;;4988279;28;20517;-70
2022/08/21 12:49:22;;;;;;;0.00;0.00;;;28.40;98.20;;;;;;4990853;28;20573;-70
2022/08/21 12:51:56;;;;;;;0.10;0.10;;;28.20;98.00;;;;;;4999585;28;20050;-70
2022/08/21 12:54:37;;;;;;;0.00;0.00;;;27.90;97.70;;;;;;4997076;28;20052;-70
2022/08/21 12:57:05;;;;;;;0.00;0.00;;;27.50;97.80;;;;;;5007319;28;20046;-70
2022/08/21 12:59:32;;;;;;;0.05;0.05;;;28.00;98.70;;;;;;4996871;28;20050;-69
2022/08/21 13:02:02;;;;;;;0.00;0.00;;;28.10;97.20;;;;;;4996873;28;20042;-69
2022/08/21 13:04:39;;;;;;;0.00;0.00;;;28.00;97.30;;;;;;5001030;28;20043;-69
2022/08/21 13:07:10;;;;;;;0.00;0.00;;;28.40;97.90;;;;;;4990964;28;20153;-69